Aviation Digital Data Service (ADDS)

Output produced by METARs form (0730 UTC 01 September 2014)
found at http://www.aviationweather.gov/adds/metars/
 
KJST 010654Z AUTO 22003KT 7SM OVC009 19/18 A3008 RMK AO2 RAB13E26 CIG 004V011 SLP174 P0000 T01940183
KJST 010638Z AUTO 24005KT 8SM BKN005 OVC009 19/18 A3008 RMK AO2 RAB13E26 CIG 003V009 P0000 T01940183
KJST 010631Z AUTO 25005KT 8SM BKN004 OVC009 19/18 A3008 RMK AO2 RAB13E26 CIG 003V007 P0000 T01940183
KJST 010619Z AUTO 25006KT 7SM -RA BKN006 OVC011 19/18 A3009 RMK AO2 RAB13 CIG 003V009 P0000 T01940183
KJST 010554Z AUTO 24006KT 10SM BKN011 OVC045 19/18 A3009 RMK AO2 SLP175 60000 T01940183 10206 20194 58005
KJST 010454Z AUTO 21006KT 10SM OVC011 20/18 A3009 RMK AO2 SLP177 T02000183 402220194
KJST 010354Z AUTO 21007KT 10SM OVC012 20/19 A3010 RMK AO2 RAB02E11 SLP178 P0000 T02000189
KJST 010319Z AUTO 22007KT 10SM BKN014 OVC018 20/18 A3010 RMK AO2 RAB02E11 P0000 T02000183
KJST 010254Z AUTO 20008KT 10SM BKN016 OVC050 20/18 A3010 RMK AO2 SLP179 T02000183 50001
KJST 010212Z AUTO 20004KT 10SM SCT015 BKN029 OVC060 20/18 A3010 RMK AO2 T02000183
KJST 010154Z AUTO 22006KT 10SM FEW019 SCT028 BKN060 20/18 A3010 RMK AO2 SLP182 T02000183
KJST 010123Z AUTO 24006KT 10SM SCT030 20/18 A3010 RMK AO2 T02000183
KJST 010054Z AUTO 22006KT 10SM FEW016 BKN029 21/18 A3010 RMK AO2 SLP180 T02060183
KJST 312354Z AUTO 22006KT 10SM FEW016 BKN028 BKN036 21/19 A3010 RMK AO2 SLP178 60005 T02060189 10222 20200 52002
KJST 312309Z AUTO 21005KT 10SM FEW009 BKN015 BKN024 21/19 A3009 RMK AO2 T02060189
KJST 312254Z AUTO 23005KT 10SM SCT017 BKN024 BKN042 21/19 A3009 RMK AO2 SLP177 T02060189
KJST 312154Z AUTO 25006KT 10SM FEW011 BKN065 OVC080 21/19 A3009 RMK AO2 RAE2055B21E47 SLP177 P0004 T02060189
KJST 312141Z AUTO 27006KT 3SM -RA BR SCT013 BKN033 OVC065 21/19 A3009 RMK AO2 RAE2055B21 P0004 T02060189
KJST 312137Z AUTO 25006G15KT 1 1/2SM RA BR FEW007 BKN033 OVC047 21/19 A3009 RMK AO2 RAE2055B21 P0004 T02060189
KJST 312130Z AUTO 25007KT 2 1/2SM -RA BR FEW008 BKN018 OVC050 21/19 A3009 RMK AO2 VIS 3/4V5 RAE2055B21 P0002 T02110194
KJST 312054Z AUTO 24010KT 10SM -RA FEW014 BKN024 BKN031 22/19 A3009 RMK AO2 RAB46 SLP175 P0000 60001 T02170189 58010
KJST 312027Z AUTO 24007KT 10SM SCT012 22/19 A3009 RMK AO2 T02220189
KJST 311954Z AUTO 26005KT 10SM FEW009 BKN024 OVC032 22/19 A3010 RMK AO2 SLP179 T02170194
KJST 311914Z AUTO 26006KT 10SM FEW007 BKN027 OVC100 22/19 A3011 RMK AO2 T02170194
KJST 311902Z AUTO 24007KT 10SM SCT006 BKN012 OVC027 21/19 A3011 RMK AO2 T02110194
KJST 311854Z AUTO 23005KT 10SM BKN006 BKN010 OVC023 21/19 A3012 RMK AO2 RAE35 CIG 004V008 SLP186 P0001 T02060194
KJST 311754Z AUTO 25009KT 10SM -RA OVC007 20/19 A3012 RMK AO2 RAE31B48 CIG 003V011 SLP187 P0001 60035 T02000189 10211 20194 56004
KJST 311740Z AUTO 26008KT 10SM BKN005 OVC010 20/19 A3012 RMK AO2 RAE31 CIG 003V007 P0001 T02000189
KJST 311702Z AUTO 26006KT 4SM -RA BR BKN003 OVC014 20/19 A3013 RMK AO2 P0001 T02000189
KJST 311654Z AUTO 25008KT 2 1/2SM RA BR BKN004 BKN013 OVC021 19/18 A3013 RMK AO2 SLP189 P0024 T01940183
KJST 311640Z AUTO 28009KT 1SM +RA BR FEW004 BKN015 OVC025 19/18 A3013 RMK AO2 P0021 T01940183
KJST 311629Z AUTO 29008KT 3/4SM +RA BR FEW013 BKN018 OVC026 20/19 A3013 RMK AO2 P0013 T02000189
KJST 311623Z AUTO 29006KT 1 3/4SM RA BR SCT012 BKN016 OVC024 20/19 A3013 RMK AO2 P0008 T02000189
KJST 311613Z AUTO 28007KT 2SM RA BR BKN012 BKN020 OVC040 20/19 A3013 RMK AO2 P0004 T02000189
KJST 311609Z AUTO 27005KT 1 3/4SM RA BR SCT012 BKN022 OVC040 21/19 A3013 RMK AO2 P0003 T02060194
KJST 311554Z AUTO 26005KT 2 1/2SM RA BR BKN012 BKN028 OVC070 21/19 A3013 RMK AO2 RAB07 SLP190 P0002 T02060194
KJST 311545Z AUTO 24005KT 5SM -RA BR FEW009 BKN031 OVC041 21/19 A3013 RMK AO2 RAB07 P0001 T02060189
KJST 311528Z AUTO 24006KT 6SM -RA BR FEW014 BKN021 OVC070 21/19 A3014 RMK AO2 RAB07 P0000 T02060189
KJST 311454Z AUTO 23009KT 10SM FEW007 SCT045 BKN070 21/19 A3014 RMK AO2 RAE16B33E50 SLP191 P0000 60008 T02110189 55003
KJST 311443Z AUTO 22008KT 10SM -RA SCT007 BKN040 OVC110 21/18 A3014 RMK AO2 RAE16B33 P0000 T02110183
KJST 311354Z AUTO 22007KT 7SM -RA BKN007 OVC022 20/19 A3013 RMK AO2 RAE34B47 SLP191 P0001 T02000189
KJST 311344Z AUTO 21007KT 8SM SCT007 OVC021 20/19 A3013 RMK AO2 RAE34 P0001 T02000189
KJST 311309Z AUTO 21009KT 6SM -RA BR SCT013 BKN022 OVC110 20/18 A3013 RMK AO2 P0000 T02000183
KJST 311254Z AUTO 21008KT 5SM -RA BR FEW020 BKN110 20/18 A3013 RMK AO2 RAB00 SLP190 P0007 T02000183
KJST 311227Z AUTO 20008KT 4SM -RA BR SCT075 BKN100 20/18 A3014 RMK AO2 RAB00 P0006 T02000183
KJST 311216Z AUTO 21006KT 2SM RA BR BKN070 OVC100 20/18 A3014 RMK AO2 RAB00 P0004 T02000183
KJST 311154Z AUTO 22006KT 9SM FEW026 OVC070 20/18 A3014 RMK AO2 RAB06E34 SLP194 P0004 60021 70021 T02000183 10211 20194 50002
KJST 311139Z AUTO 21006KT 7SM FEW010 BKN065 OVC075 19/18 A3015 RMK AO2 RAB06E34 P0004 T01940183
KJST 311127Z AUTO 22005KT 6SM -RA BR SCT010 BKN024 OVC060 19/18 A3015 RMK AO2 RAB06 P0004 T01940183
KJST 311119Z AUTO 22006KT 3SM RA BR SCT010 BKN014 OVC024 20/18 A3015 RMK AO2 RAB06 P0004 T02000183
KJST 311107Z AUTO 24007KT 6SM -RA BR FEW016 BKN024 OVC031 20/18 A3015 RMK AO2 RAB06 P0000 T02000183
KJST 311054Z AUTO 26007KT 9SM FEW018 OVC030 20/18 A3015 RMK AO2 RAE31 SLP194 P0007 T02000183
KJST 311040Z AUTO 24008KT 8SM FEW022 OVC032 19/18 A3014 RMK AO2 RAE31 P0007 T01940183
KJST 311024Z AUTO 24006KT 7SM -RA FEW008 BKN024 OVC035 19/18 A3014 RMK AO2 P0007 T01940183
KJST 311013Z AUTO 23006KT 2SM +RA BR FEW006 BKN023 OVC033 19/18 A3014 RMK AO2 P0006 T01940183
KJST 311004Z AUTO 24006KT 4SM RA BR FEW007 BKN024 OVC037 19/18 A3014 RMK AO2 LTG DSNT N P0001 T01940183
KJST 310954Z AUTO 23015G18KT 3SM -RA BR SCT024 BKN032 OVC049 20/18 A3014 RMK AO2 LTG DSNT N AND NW RAB26 SLP189 P0010 T02000183
KJST 310951Z AUTO 22013G18KT 2SM RA BR SCT026 BKN039 OVC055 20/18 A3014 RMK AO2 LTG DSNT N AND NW RAB26 P0009
KJST 310854Z AUTO 18006KT 10SM OVC110 21/18 A3011 RMK AO2 SLP180 T02060178 56013
KJST 310754Z AUTO 20005KT 10SM SCT050 21/18 A3012 RMK AO2 SLP184 T02060183
KJST 310654Z AUTO 19006KT 10SM CLR 21/18 A3013 RMK AO2 SLP188 T02060183
KJST 310554Z AUTO 19005KT 9SM CLR 21/19 A3015 RMK AO2 SLP193 T02060189 10228 20194 56005
KJST 310454Z AUTO 22005KT 8SM CLR 20/18 A3015 RMK AO2 SLP194 T02000183 402720150
KJST 310354Z AUTO 21004KT 10SM CLR 21/18 A3015 RMK AO2 SLP195 T02060183
KJST 310254Z AUTO 20004KT 10SM CLR 21/18 A3017 RMK AO2 SLP201 T02060183 53009
KJST 310154Z AUTO 17008KT 10SM CLR 21/19 A3015 RMK AO2 SLP196 T02110189
KJST 310054Z AUTO 15010G17KT 10SM CLR 22/19 A3014 RMK AO2 SLP194 T02170194
KJST 302354Z AUTO 16012KT 10SM CLR 23/19 A3014 RMK AO2 SLP194 T02280189 10272 20228 55002
KJST 302254Z AUTO 15009KT 10SM OVC090 24/19 A3013 RMK AO2 SLP189 T02440194
KJST 302154Z AUTO 16008KT 10SM CLR 26/19 A3013 RMK AO2 SLP188 T02610189
KJST 302054Z AUTO 14004KT 10SM BKN045 BKN070 BKN100 26/19 A3014 RMK AO2 SLP194 T02560189 56012
KJST 301954Z AUTO 15006KT 10SM FEW046 BKN095 26/19 A3016 RMK AO2 SLP197 T02610194